Airfield :
LOGIN :

Register | Disclaimer

   EN    FR    IT 

 










Legend :    VFR   Marginal VFR   IFR   Intensive IFR   Very Intensive IFR
Visi :
Ceiling :
>= 8 km
>= 3000ft
5 to 8 km
1000 to 3000 ft
1500m to 5 km
500 to 1000 ft
800 to 1500m
200 to 500 ft
< 800m
< 200 ft
Symbols :   Thunderstorms  Fog  Heavy snow  Heavy precipitations  Wind > 20 kt
SIGMETs :     Misc.  Thunderstorms  Icing  Turbulence  Mountain Waves  Volcanic Ashes







- Airport Elevation : 699 ft
- IATA code : PAD


EDLP - Paderborn Lippstadt

CURRENT METAR :
  • 270620Z 35005KT 290V040 9999 BKN015 14/10 Q1028

EXPIRED METARs :
  • 270550Z 33004KT 260V040 9999 BKN015 14/10 Q1028
  • 270520Z 32005KT 280V030 9999 BKN015 14/11 Q1027
  • 270450Z 35003KT 300V040 9999 BKN015 14/11 Q1027
  • 270420Z 35003KT 300V040 9999 BKN015 14/11 Q1027
  • 270350Z 34004KT 270V060 9999 BKN013 14/11 Q1027

TAF TAF EDLP
Valid from the 27 at 06:00 until the 28 at 06:00 UTC


270500Z 2706/2806 34006KT 9999 SCT020
TEMPO 2706/2708 BKN014
BECMG 2720/2723 VRB03KT
TEMPO 2801/2806 BKN012
No reported NOTAMs for that airfield.



MET'MAP, your aeronautical weather chart ! - Copyright ORBIFLY December 2007 - Disclaimer

ORBIFLY MET'MAP TEAM :

Programming & Development : Alexandra Zaïnal
Concept & Development : Baudouin d'Aumeries
Co-Development & Prog : Marc-Olivier Méhu
Technical & hardware support : Manuel Goepfert

Contact : metmap@orbifly.com




SOURCES & CREDITS :

   NOAA